createdAt,value
2023-04-13T00:00:53.607Z,2.20
2023-04-13T00:03:22.727Z,2.50
2023-04-13T00:05:53.477Z,2.90
2023-04-13T00:08:24.785Z,3.60
2023-04-13T00:10:57.568Z,5.10
2023-04-13T00:13:25.737Z,5.30
2023-04-13T00:15:57.186Z,6.20
2023-04-13T00:18:25.667Z,4.40
2023-04-13T00:20:54.697Z,4.70
2023-04-13T00:23:23.148Z,4.10
2023-04-13T00:25:56.644Z,3.40
2023-04-13T00:28:25.939Z,3.30
2023-04-13T00:30:55.223Z,3.00
2023-04-13T00:33:24.745Z,2.50
2023-04-13T00:35:53.230Z,2.10
2023-04-13T00:38:24.344Z,2.60
2023-04-13T00:40:55.980Z,2.30
2023-04-13T00:43:24.309Z,2.40
2023-04-13T00:45:53.328Z,2.20
2023-04-13T00:48:27.409Z,2.40
2023-04-13T00:50:56.198Z,1.80
2023-04-13T00:53:25.980Z,2.30
2023-04-13T00:56:00.429Z,1.90
2023-04-13T00:58:32.908Z,2.10
2023-04-13T01:01:01.184Z,1.90
2023-04-13T01:03:32.249Z,2.20
2023-04-13T01:06:18.179Z,2.40
2023-04-13T01:09:09.436Z,2.30
2023-04-13T01:12:04.447Z,1.70
2023-04-13T01:14:48.125Z,1.60
2023-04-13T01:17:23.905Z,1.50
2023-04-13T01:20:01.660Z,1.50
2023-04-13T01:22:34.089Z,1.50
2023-04-13T01:25:47.832Z,1.60
2023-04-13T01:28:19.802Z,1.60
2023-04-13T01:30:50.042Z,1.50
2023-04-13T01:33:19.624Z,1.60
2023-04-13T01:35:55.476Z,1.40
2023-04-13T01:38:25.630Z,1.20
2023-04-13T01:40:56.635Z,1.10
2023-04-13T01:43:26.446Z,1.20
2023-04-13T01:46:08.294Z,1.00
2023-04-13T01:48:52.201Z,1.10
2023-04-13T01:51:41.860Z,0.90
2023-04-13T01:54:14.166Z,0.90
2023-04-13T01:56:46.101Z,1.20
2023-04-13T01:59:16.896Z,0.90
2023-04-13T02:01:45.681Z,1.20
2023-04-13T02:04:16.013Z,1.00
2023-04-13T02:06:48.620Z,1.20
2023-04-13T02:09:18.140Z,1.30
2023-04-13T02:11:46.407Z,1.20
2023-04-13T02:14:17.337Z,1.20
2023-04-13T02:16:45.849Z,1.20
2023-04-13T02:21:44.221Z,1.50
2023-04-13T02:24:12.794Z,1.20
2023-04-13T02:26:43.859Z,1.30
2023-04-13T02:29:12.118Z,1.20
2023-04-13T02:31:54.489Z,1.20
2023-04-13T02:34:23.226Z,1.20
2023-04-13T02:36:51.789Z,1.30
2023-04-13T02:39:27.237Z,1.60
2023-04-13T02:41:58.172Z,1.40
2023-04-13T02:44:27.389Z,1.10
2023-04-13T02:46:59.032Z,2.20
2023-04-13T02:49:27.812Z,1.50
2023-04-13T02:52:08.194Z,1.60
2023-04-13T02:54:55.082Z,1.80
2023-04-13T02:57:26.665Z,1.60
2023-04-13T03:02:30.327Z,1.50
2023-04-13T03:04:59.618Z,2.00
2023-04-13T03:10:05.933Z,1.70
2023-04-13T03:12:37.075Z,1.60
2023-04-13T03:15:15.169Z,1.60
2023-04-13T03:17:44.484Z,2.10
2023-04-13T03:20:17.289Z,2.50
2023-04-13T03:22:53.946Z,2.00
2023-04-13T03:27:51.935Z,1.80
2023-04-13T03:30:21.736Z,2.20
2023-04-13T03:33:14.314Z,1.90
2023-04-13T03:35:44.627Z,2.00
2023-04-13T03:38:20.275Z,3.10
2023-04-13T03:40:49.635Z,2.70
2023-04-13T03:43:19.253Z,3.10
2023-04-13T03:45:54.775Z,7.10
2023-04-13T03:48:23.606Z,8.00
2023-04-13T03:50:52.293Z,5.90
2023-04-13T03:53:25.280Z,3.40
2023-04-13T03:55:56.110Z,2.20
2023-04-13T03:58:24.818Z,2.70
2023-04-13T04:00:54.401Z,2.80
2023-04-13T04:03:27.824Z,2.90
2023-04-13T04:05:59.043Z,2.70
2023-04-13T04:08:29.781Z,4.20
2023-04-13T04:11:01.151Z,4.30
2023-04-13T04:13:30.811Z,3.30
2023-04-13T04:16:04.902Z,3.20
2023-04-13T04:18:35.582Z,3.40
2023-04-13T04:21:04.575Z,2.90
2023-04-13T04:23:34.998Z,2.90
2023-04-13T04:26:06.696Z,2.40
2023-04-13T04:28:42.419Z,2.20
2023-04-13T04:31:14.513Z,2.00
2023-04-13T04:33:47.558Z,4.00
2023-04-13T04:36:16.980Z,7.00
2023-04-13T04:39:02.790Z,6.30
2023-04-13T04:41:38.086Z,7.10
2023-04-13T04:44:08.442Z,3.60
2023-04-13T04:46:41.952Z,2.70
2023-04-13T04:49:14.207Z,2.40
2023-04-13T04:51:42.895Z,2.20
2023-04-13T04:54:17.168Z,2.00
2023-04-13T04:56:50.682Z,1.70
2023-04-13T04:59:22.645Z,2.60
2023-04-13T05:01:57.999Z,2.50
2023-04-13T05:04:26.902Z,1.80
2023-04-13T05:06:55.875Z,1.90
2023-04-13T05:09:26.924Z,1.90
2023-04-13T05:11:58.542Z,1.90
2023-04-13T05:14:27.047Z,2.00
2023-04-13T05:16:55.846Z,1.70
2023-04-13T05:19:28.045Z,1.30
2023-04-13T05:22:03.072Z,1.50
2023-04-13T05:24:39.309Z,1.30
2023-04-13T05:27:11.984Z,1.60
2023-04-13T05:29:40.584Z,1.40
2023-04-13T05:32:09.766Z,1.10
2023-04-13T05:34:38.653Z,1.10
2023-04-13T05:37:12.564Z,1.10
2023-04-13T05:39:42.787Z,1.10
2023-04-13T05:42:11.982Z,1.40
2023-04-13T05:44:45.271Z,1.50
2023-04-13T05:47:14.825Z,1.80
2023-04-13T05:49:45.513Z,1.80
2023-04-13T05:52:14.520Z,1.60
2023-04-13T05:54:48.126Z,1.60
2023-04-13T05:57:17.303Z,1.90
2023-04-13T05:59:48.140Z,1.30
2023-04-13T06:02:21.053Z,1.60
2023-04-13T06:04:54.070Z,1.70
2023-04-13T06:07:23.206Z,1.60
2023-04-13T06:09:51.891Z,1.50
2023-04-13T06:12:22.312Z,1.60
2023-04-13T06:14:51.106Z,1.40
2023-04-13T06:17:19.824Z,1.40
2023-04-13T06:19:48.486Z,3.00
2023-04-13T06:22:17.069Z,1.90
2023-04-13T06:24:45.746Z,1.40
2023-04-13T06:27:14.376Z,1.60
2023-04-13T06:29:47.054Z,1.00
2023-04-13T06:32:16.028Z,1.20
2023-04-13T06:34:46.014Z,1.40
2023-04-13T06:39:48.733Z,1.50
2023-04-13T06:42:18.729Z,1.50
2023-04-13T06:45:01.971Z,1.70
2023-04-13T06:47:36.324Z,1.70
2023-04-13T06:50:07.367Z,2.10
2023-04-13T06:52:38.271Z,2.40
2023-04-13T06:55:07.534Z,3.20
2023-04-13T06:57:39.930Z,2.60
2023-04-13T07:00:26.056Z,2.70
2023-04-13T07:02:58.450Z,2.90
2023-04-13T07:05:27.295Z,3.50
2023-04-13T07:07:58.643Z,3.30
2023-04-13T07:10:27.927Z,2.80
2023-04-13T07:12:57.478Z,2.80
2023-04-13T07:15:27.244Z,2.50
2023-04-13T07:17:56.303Z,2.30
2023-04-13T07:20:24.728Z,2.30
2023-04-13T07:22:54.121Z,2.50
2023-04-13T07:25:22.738Z,2.30
2023-04-13T07:27:52.931Z,1.80
2023-04-13T07:32:52.708Z,1.50
2023-04-13T07:35:22.580Z,1.90
2023-04-13T07:37:53.072Z,1.50
2023-04-13T07:40:22.513Z,1.90
2023-04-13T07:42:53.309Z,1.70
2023-04-13T07:45:31.455Z,3.10
2023-04-13T07:48:01.107Z,3.00
2023-04-13T07:50:30.553Z,2.40
2023-04-13T07:52:59.543Z,2.80
2023-04-13T07:55:28.860Z,2.40
2023-04-13T07:58:00.152Z,2.40
2023-04-13T08:00:28.878Z,1.80
2023-04-13T08:02:59.109Z,1.70
2023-04-13T08:05:32.053Z,2.20
2023-04-13T08:08:02.423Z,2.70
2023-04-13T08:10:31.518Z,3.20
2023-04-13T08:13:01.922Z,3.40
2023-04-13T08:15:34.123Z,2.70
2023-04-13T08:18:04.160Z,3.00
2023-04-13T08:20:35.773Z,3.40
2023-04-13T08:23:07.350Z,4.50
2023-04-13T08:25:44.939Z,4.50
2023-04-13T08:28:13.404Z,5.50
2023-04-13T08:30:44.247Z,5.80
2023-04-13T08:33:14.571Z,5.20
2023-04-13T08:35:42.885Z,5.20
2023-04-13T08:38:14.908Z,4.90
2023-04-13T08:40:49.568Z,4.20
2023-04-13T08:43:20.294Z,5.00
2023-04-13T08:45:51.953Z,5.30
2023-04-13T08:48:23.471Z,5.00
2023-04-13T08:50:52.665Z,4.80
2023-04-13T08:53:24.009Z,5.60
2023-04-13T08:55:54.951Z,5.80
2023-04-13T09:00:56.851Z,5.70
2023-04-13T09:03:30.006Z,5.70
2023-04-13T09:06:01.955Z,5.80
2023-04-13T09:08:36.002Z,5.60
2023-04-13T09:11:07.133Z,6.40
2023-04-13T09:13:36.793Z,6.40
2023-04-13T09:16:06.560Z,6.20
2023-04-13T09:18:57.477Z,5.80
2023-04-13T09:21:37.630Z,6.90
2023-04-13T09:24:06.373Z,6.10
2023-04-13T09:26:47.696Z,6.50
2023-04-13T09:29:22.208Z,6.10
2023-04-13T09:31:51.032Z,6.10
2023-04-13T09:34:29.005Z,6.70
2023-04-13T09:37:01.219Z,7.10
2023-04-13T09:39:31.192Z,7.60
2023-04-13T09:42:12.271Z,6.80
2023-04-13T09:47:09.557Z,7.20
2023-04-13T09:49:38.798Z,7.80
2023-04-13T09:52:20.620Z,7.80
2023-04-13T09:54:54.690Z,7.10
2023-04-13T09:57:27.887Z,7.40
2023-04-13T09:59:57.961Z,7.80
2023-04-13T10:02:28.143Z,7.90
2023-04-13T10:04:57.020Z,7.70
2023-04-13T10:07:30.195Z,7.00
2023-04-13T10:10:00.984Z,7.50
2023-04-13T10:12:30.500Z,8.30
2023-04-13T10:15:02.969Z,8.30
2023-04-13T10:17:40.035Z,8.20
2023-04-13T10:20:11.321Z,7.10
2023-04-13T10:22:41.920Z,6.70
2023-04-13T10:25:29.030Z,7.80
2023-04-13T10:28:00.946Z,8.10
2023-04-13T10:30:30.203Z,9.00
2023-04-13T10:33:07.440Z,8.20
2023-04-13T10:35:43.480Z,7.80
2023-04-13T10:38:16.322Z,7.20
2023-04-13T10:40:46.527Z,8.40
2023-04-13T10:43:31.882Z,8.80
2023-04-13T10:46:08.389Z,9.30
2023-04-13T10:48:37.596Z,9.00
2023-04-13T10:51:07.034Z,8.50
2023-04-13T10:53:37.023Z,8.20
2023-04-13T10:56:16.133Z,8.70
2023-04-13T10:58:51.714Z,9.40
2023-04-13T11:01:21.089Z,9.10
2023-04-13T11:04:03.836Z,8.60
2023-04-13T11:06:39.474Z,7.90
2023-04-13T11:09:12.954Z,8.60
2023-04-13T11:11:43.884Z,8.30
2023-04-13T11:14:21.571Z,8.50
2023-04-13T11:16:50.901Z,10.30
2023-04-13T11:19:20.082Z,9.40
2023-04-13T11:21:55.370Z,8.90
2023-04-13T11:24:26.772Z,7.80
2023-04-13T11:26:55.151Z,9.40
2023-04-13T11:29:25.270Z,11.10
2023-04-13T11:31:53.886Z,11.80
2023-04-13T11:34:26.661Z,9.50
2023-04-13T11:37:01.399Z,9.10
2023-04-13T11:39:32.502Z,8.20
2023-04-13T11:44:39.532Z,10.30
2023-04-13T11:47:11.077Z,10.40
2023-04-13T11:49:48.305Z,10.30
2023-04-13T11:52:17.763Z,9.60
2023-04-13T11:54:46.543Z,9.40
2023-04-13T11:57:16.036Z,9.80
2023-04-13T11:59:49.022Z,10.80
2023-04-13T12:02:29.808Z,10.60
2023-04-13T12:04:59.116Z,9.80
2023-04-13T12:07:27.974Z,9.50
2023-04-13T12:10:00.934Z,11.70
2023-04-13T12:17:48.374Z,10.00
2023-04-13T12:20:20.231Z,9.20
2023-04-13T12:22:57.775Z,9.20
2023-04-13T12:25:36.006Z,10.10
2023-04-13T12:28:05.292Z,10.50
2023-04-13T12:30:34.726Z,9.70
2023-04-13T12:33:19.453Z,8.70
2023-04-13T12:35:47.941Z,8.70
2023-04-13T12:38:18.571Z,9.90
2023-04-13T12:40:47.533Z,10.70
2023-04-13T12:43:16.347Z,9.70
2023-04-13T12:45:45.132Z,8.80
2023-04-13T12:48:13.907Z,9.80
2023-04-13T12:50:47.531Z,10.40
2023-04-13T12:53:16.516Z,9.30
2023-04-13T12:55:45.201Z,10.00
2023-04-13T12:58:14.091Z,9.90
2023-04-13T13:00:43.220Z,9.80
2023-04-13T13:03:31.658Z,10.90
2023-04-13T13:06:01.448Z,11.40
2023-04-13T13:08:32.032Z,11.00
2023-04-13T13:11:08.484Z,10.60
2023-04-13T13:13:37.949Z,10.50
2023-04-13T13:16:06.465Z,9.60
2023-04-13T13:18:50.300Z,11.00
2023-04-13T13:23:48.773Z,10.90
2023-04-13T13:28:51.231Z,10.30
2023-04-13T13:31:20.510Z,10.50
2023-04-13T13:33:49.474Z,11.00
2023-04-13T13:36:18.352Z,11.40
2023-04-13T13:38:47.338Z,12.30
2023-04-13T13:41:15.919Z,12.50
2023-04-13T13:43:44.602Z,11.10
2023-04-13T13:46:13.485Z,9.00
2023-04-13T13:51:32.016Z,10.00
2023-04-13T13:54:00.972Z,10.10
2023-04-13T13:56:29.740Z,10.00
2023-04-13T13:58:59.351Z,10.00
2023-04-13T14:01:28.547Z,8.60
2023-04-13T14:03:59.361Z,8.80
2023-04-13T14:06:33.085Z,10.70
2023-04-13T14:09:04.041Z,10.70
2023-04-13T14:11:34.664Z,11.30
2023-04-13T14:14:10.847Z,11.20
2023-04-13T14:16:44.309Z,10.40
2023-04-13T14:19:13.114Z,11.60
2023-04-13T14:21:42.818Z,11.80
2023-04-13T14:24:11.289Z,12.60
2023-04-13T14:26:40.284Z,14.50
2023-04-13T14:29:09.176Z,13.80
2023-04-13T14:31:38.007Z,14.80
2023-04-13T14:34:07.468Z,14.70
2023-04-13T14:36:36.169Z,15.00
2023-04-13T14:39:10.061Z,17.00
2023-04-13T14:41:39.662Z,19.00
2023-04-13T14:44:08.973Z,20.00
2023-04-13T14:46:38.117Z,19.70
2023-04-13T14:49:07.465Z,19.10
2023-04-13T14:51:36.394Z,18.10
2023-04-13T14:54:08.927Z,18.70
2023-04-13T14:56:37.411Z,19.40
2023-04-13T14:59:06.931Z,20.10
2023-04-13T15:01:41.428Z,19.90
2023-04-13T15:04:11.692Z,18.10
2023-04-13T15:06:40.447Z,17.80
2023-04-13T15:09:13.239Z,19.80
2023-04-13T15:11:44.375Z,22.40
2023-04-13T15:14:13.059Z,23.70
2023-04-13T15:16:41.650Z,21.90
2023-04-13T15:19:10.750Z,20.70
2023-04-13T15:21:39.322Z,22.40
2023-04-13T15:24:09.444Z,23.00
2023-04-13T15:26:39.776Z,25.90
2023-04-13T15:29:08.766Z,26.70
2023-04-13T15:31:38.201Z,27.30
2023-04-13T15:34:08.831Z,29.20
2023-04-13T15:36:38.213Z,27.00
2023-04-13T15:39:06.736Z,28.90
2023-04-13T15:41:35.873Z,31.50
2023-04-13T15:44:04.666Z,32.60
2023-04-13T15:46:33.490Z,33.00
2023-04-13T15:49:03.053Z,31.80
2023-04-13T15:51:32.497Z,30.60
2023-04-13T15:54:00.952Z,32.40
2023-04-13T15:56:29.831Z,33.50
2023-04-13T15:58:58.689Z,32.70
2023-04-13T16:01:27.751Z,31.80
2023-04-13T16:06:28.464Z,29.40
2023-04-13T16:09:02.387Z,32.20
2023-04-13T16:11:32.484Z,33.60
2023-04-13T16:14:07.664Z,33.80
2023-04-13T16:16:44.590Z,31.30
2023-04-13T16:19:18.342Z,29.40
2023-04-13T16:21:47.529Z,25.90
2023-04-13T16:24:17.448Z,26.80
2023-04-13T16:26:46.348Z,26.40
2023-04-13T16:29:15.222Z,28.80
2023-04-13T16:31:47.198Z,26.10
2023-04-13T16:34:25.672Z,24.40
2023-04-13T16:36:56.618Z,24.30
2023-04-13T16:39:36.900Z,22.40
2023-04-13T16:42:06.151Z,22.80
2023-04-13T16:44:35.222Z,23.30
2023-04-13T16:47:04.876Z,22.20
2023-04-13T16:49:34.381Z,22.10
2023-04-13T16:52:04.943Z,21.40
2023-04-13T16:54:35.245Z,20.70
2023-04-13T16:57:04.173Z,21.10
2023-04-13T16:59:32.714Z,23.20
2023-04-13T17:02:01.783Z,21.10
2023-04-13T17:04:31.016Z,23.30
2023-04-13T17:07:02.825Z,19.50
2023-04-13T17:09:34.007Z,20.30
2023-04-13T17:12:02.791Z,19.20
2023-04-13T17:14:32.110Z,22.40
2023-04-13T17:17:00.616Z,25.00
2023-04-13T17:19:30.798Z,23.70
2023-04-13T17:21:59.788Z,23.20
2023-04-13T17:24:28.576Z,22.90
2023-04-13T17:26:58.182Z,21.70
2023-04-13T17:29:27.644Z,20.80
2023-04-13T17:31:58.285Z,19.30
2023-04-13T17:34:27.748Z,19.10
2023-04-13T17:36:58.221Z,16.00
2023-04-13T17:41:58.793Z,14.00
2023-04-13T17:44:28.539Z,11.50
2023-04-13T17:46:57.225Z,10.60
2023-04-13T17:49:28.234Z,10.00
2023-04-13T17:51:59.320Z,9.40
2023-04-13T17:54:28.271Z,8.70
2023-04-13T17:56:58.391Z,8.90
2023-04-13T17:59:27.602Z,7.40
2023-04-13T18:01:57.828Z,7.00
2023-04-13T18:04:26.308Z,6.40
2023-04-13T18:06:57.022Z,7.20
2023-04-13T18:09:27.278Z,6.50
2023-04-13T18:11:57.882Z,5.20
2023-04-13T18:14:27.699Z,6.10
2023-04-13T18:16:56.228Z,5.60
2023-04-13T18:19:25.311Z,5.80
2023-04-13T18:21:59.182Z,5.40
2023-04-13T18:24:28.268Z,5.40
2023-04-13T18:26:57.159Z,5.30
2023-04-13T18:29:33.011Z,5.50
2023-04-13T18:32:01.626Z,6.20
2023-04-13T18:34:31.208Z,6.40
2023-04-13T18:36:59.490Z,6.70
2023-04-13T18:39:28.487Z,7.30
2023-04-13T18:41:56.971Z,6.10
2023-04-13T18:44:29.652Z,7.20
2023-04-13T18:46:58.958Z,9.00
2023-04-13T18:49:27.652Z,11.20
2023-04-13T18:51:56.970Z,11.30
2023-04-13T18:54:26.130Z,11.40
2023-04-13T18:56:54.705Z,9.80
2023-04-13T18:59:23.590Z,8.70
2023-04-13T19:01:53.076Z,9.20
2023-04-13T19:04:21.956Z,6.30
2023-04-13T19:06:51.106Z,6.70
2023-04-13T19:09:20.587Z,5.80
2023-04-13T19:11:53.435Z,5.50
2023-04-13T19:14:25.642Z,5.60
2023-04-13T19:16:56.776Z,4.40
2023-04-13T19:19:25.774Z,4.10
2023-04-13T19:21:55.253Z,4.20
2023-04-13T19:24:25.118Z,6.20
2023-04-13T19:26:56.034Z,9.30
2023-04-13T19:29:30.384Z,5.50
2023-04-13T19:31:59.214Z,5.60
2023-04-13T19:34:28.438Z,6.20
2023-04-13T19:36:57.134Z,7.50
2023-04-13T19:39:31.566Z,6.80
2023-04-13T19:42:01.052Z,8.20
2023-04-13T19:44:30.260Z,7.80
2023-04-13T19:47:03.836Z,8.50
2023-04-13T19:49:33.658Z,6.90
2023-04-13T19:52:02.362Z,7.40
2023-04-13T19:54:36.808Z,7.00
2023-04-13T19:57:05.448Z,6.00
2023-04-13T19:59:34.028Z,6.40
2023-04-13T20:02:02.652Z,6.20
2023-04-13T20:04:34.200Z,5.70
2023-04-13T20:07:04.600Z,5.60
2023-04-13T20:09:34.439Z,5.30
2023-04-13T20:12:07.799Z,4.90
2023-04-13T20:14:36.401Z,6.00
2023-04-13T20:17:05.013Z,24.00
2023-04-13T20:19:36.891Z,7.90
2023-04-13T20:22:05.620Z,5.00
2023-04-13T20:24:34.198Z,4.50
2023-04-13T20:27:02.986Z,4.60
2023-04-13T20:29:31.690Z,4.90
2023-04-13T20:32:03.837Z,4.90
2023-04-13T20:34:35.286Z,4.30
2023-04-13T20:37:03.735Z,4.70
2023-04-13T20:39:33.072Z,4.50
2023-04-13T20:42:04.915Z,4.70
2023-04-13T20:44:38.322Z,4.50
2023-04-13T20:47:06.852Z,9.30
2023-04-13T20:49:35.493Z,5.30
2023-04-13T20:52:04.104Z,4.50
2023-04-13T20:54:32.874Z,4.50
2023-04-13T20:57:01.785Z,5.20
2023-04-13T20:59:31.266Z,5.70
2023-04-13T21:02:00.335Z,6.30
2023-04-13T21:06:58.347Z,6.70
2023-04-13T21:09:27.166Z,6.30
2023-04-13T21:11:57.250Z,6.30
2023-04-13T21:14:25.769Z,6.40
2023-04-13T21:16:55.150Z,5.60
2023-04-13T21:19:25.270Z,5.50
2023-04-13T21:21:54.858Z,5.40
2023-04-13T21:24:23.216Z,5.10
2023-04-13T21:26:51.921Z,4.70
2023-04-13T21:29:20.609Z,4.10
2023-04-13T21:31:49.694Z,4.60
2023-04-13T21:34:18.868Z,4.40
2023-04-13T21:39:21.900Z,4.60
2023-04-13T21:41:51.105Z,4.60
2023-04-13T21:44:29.260Z,5.10
2023-04-13T21:46:58.857Z,5.70
2023-04-13T21:49:27.824Z,5.60
2023-04-13T21:51:58.126Z,5.90
2023-04-13T21:54:26.951Z,5.00
2023-04-13T21:56:55.938Z,5.80
2023-04-13T21:59:27.518Z,6.00
2023-04-13T22:01:56.094Z,5.40
2023-04-13T22:04:25.256Z,5.40
2023-04-13T22:06:54.031Z,6.20
2023-04-13T22:09:23.078Z,5.60
2023-04-13T22:11:52.019Z,6.20
2023-04-13T22:14:20.516Z,5.70
2023-04-13T22:16:49.598Z,6.00
2023-04-13T22:19:18.485Z,5.40
2023-04-13T22:21:47.584Z,5.40
2023-04-13T22:24:18.110Z,6.10
2023-04-13T22:26:47.106Z,5.60
2023-04-13T22:29:16.096Z,7.10
2023-04-13T22:31:49.100Z,6.60
2023-04-13T22:34:18.602Z,6.90
2023-04-13T22:36:47.069Z,7.20
2023-04-13T22:39:15.542Z,6.80
2023-04-13T22:41:44.132Z,7.30
2023-04-13T22:44:12.710Z,7.00
2023-04-13T22:46:41.882Z,6.80
2023-04-13T22:49:11.338Z,8.00
2023-04-13T22:51:40.386Z,7.60
2023-04-13T22:54:09.091Z,7.60
2023-04-13T22:56:37.962Z,7.30
2023-04-13T22:59:06.363Z,7.50
2023-04-13T23:01:36.187Z,8.20
2023-04-13T23:06:36.548Z,7.70
2023-04-13T23:09:07.961Z,8.20
2023-04-13T23:11:37.985Z,9.30
2023-04-13T23:14:07.697Z,10.30
2023-04-13T23:16:42.721Z,8.90
2023-04-13T23:19:11.412Z,9.30
2023-04-13T23:21:39.791Z,9.30
2023-04-13T23:24:08.170Z,9.80
2023-04-13T23:26:36.987Z,10.20
2023-04-13T23:29:05.508Z,11.10
2023-04-13T23:31:38.257Z,10.60
2023-04-13T23:34:07.431Z,10.80
2023-04-13T23:36:36.109Z,10.30
2023-04-13T23:39:06.845Z,11.10
2023-04-13T23:41:36.032Z,11.00
2023-04-13T23:44:04.415Z,11.00
2023-04-13T23:46:34.437Z,11.30
2023-04-13T23:49:02.843Z,12.50
2023-04-13T23:54:01.726Z,11.50
2023-04-13T23:56:30.717Z,11.80
2023-04-13T23:58:59.943Z,11.80
